Time;durP1;ratioP1;P1;durP2;ratioP2;P2;SDS_P1;SDS_P2;PMS_P1;PMS_P2;Temp;Humidity;BMP_temperature;BMP_pressure;BME280_temperature;BME280_humidity;BME280_pressure;Samples;Min_cycle;Max_cycle;Signal;HPM_P1;HPM_P2
2023/12/09 00:02:12;;;;;;;14.98;4.95;;;1.80;99.90;;;;;;5007604;28;20037;-73
2023/12/09 00:04:39;;;;;;;11.57;4.18;;;1.80;99.90;;;;;;5017353;28;20045;-73
2023/12/09 00:07:05;;;;;;;12.88;4.57;;;1.80;99.90;;;;;;5021376;28;20058;-73
2023/12/09 00:09:30;;;;;;;11.85;3.63;;;1.80;99.90;;;;;;5011895;28;20066;-73
2023/12/09 00:11:55;;;;;;;8.57;3.88;;;1.80;99.90;;;;;;5010691;28;20044;-73
2023/12/09 00:14:21;;;;;;;9.75;3.97;;;1.80;99.90;;;;;;5016166;28;20386;-73
2023/12/09 00:16:46;;;;;;;13.43;4.38;;;1.80;99.90;;;;;;5011061;28;20042;-73
2023/12/09 00:19:13;;;;;;;11.25;4.43;;;1.80;99.90;;;;;;5010465;28;20034;-73
2023/12/09 00:21:38;;;;;;;13.30;4.47;;;1.80;99.90;;;;;;5012407;28;20034;-73
2023/12/09 00:24:04;;;;;;;8.65;3.25;;;1.90;99.90;;;;;;5010141;28;20371;-73
2023/12/09 00:26:30;;;;;;;10.90;4.95;;;1.90;99.90;;;;;;5011089;28;20044;-73
2023/12/09 00:28:56;;;;;;;9.88;4.07;;;1.90;99.90;;;;;;5012689;28;20075;-73
2023/12/09 00:31:21;;;;;;;10.10;4.10;;;1.90;99.90;;;;;;5010168;28;20038;-73
2023/12/09 00:33:47;;;;;;;14.15;4.38;;;1.90;99.90;;;;;;5004471;28;20354;-73
2023/12/09 00:36:12;;;;;;;10.55;5.03;;;1.90;99.90;;;;;;5004590;28;20045;-73
2023/12/09 00:38:39;;;;;;;12.60;4.30;;;1.90;99.90;;;;;;5005885;28;20542;-73
2023/12/09 00:41:05;;;;;;;8.95;3.95;;;2.10;99.90;;;;;;5009170;28;20044;-73
2023/12/09 00:43:31;;;;;;;10.45;3.83;;;2.00;99.90;;;;;;5009236;28;22568;-73
2023/12/09 00:45:57;;;;;;;9.80;3.97;;;2.10;99.90;;;;;;5009248;28;20040;-73
2023/12/09 00:48:22;;;;;;;12.18;4.00;;;2.10;99.90;;;;;;5008796;28;20034;-73
2023/12/09 00:50:48;;;;;;;9.23;3.65;;;2.10;99.90;;;;;;5011631;28;20120;-73
2023/12/09 00:53:13;;;;;;;11.75;4.38;;;2.00;99.90;;;;;;5012337;28;20026;-73
2023/12/09 00:55:39;;;;;;;11.68;4.13;;;2.00;99.90;;;;;;5002608;28;20034;-73
2023/12/09 00:58:04;;;;;;;9.32;4.15;;;2.00;99.90;;;;;;5010422;28;20040;-72
2023/12/09 01:00:30;;;;;;;9.80;4.35;;;2.00;99.90;;;;;;5011320;28;20030;-73
2023/12/09 01:02:55;;;;;;;11.55;3.75;;;2.00;99.90;;;;;;5008297;28;20045;-73
2023/12/09 01:05:21;;;;;;;10.48;3.42;;;2.00;99.90;;;;;;5014435;28;20033;-73
2023/12/09 01:07:46;;;;;;;9.45;4.40;;;2.10;99.90;;;;;;5008904;28;20446;-73
2023/12/09 01:10:12;;;;;;;8.75;3.92;;;2.10;99.90;;;;;;5007160;28;20129;-73
2023/12/09 01:12:37;;;;;;;13.57;4.30;;;2.30;99.90;;;;;;5007017;28;20030;-73
2023/12/09 01:15:03;;;;;;;10.52;4.05;;;2.30;99.90;;;;;;5008991;28;20026;-73
2023/12/09 01:17:29;;;;;;;8.55;3.58;;;2.40;99.90;;;;;;5007174;28;20030;-73
2023/12/09 01:19:54;;;;;;;12.40;4.05;;;2.40;99.90;;;;;;5007752;28;20037;-73
2023/12/09 01:22:20;;;;;;;12.07;4.22;;;2.40;99.90;;;;;;5010302;28;20455;-73
2023/12/09 01:24:46;;;;;;;12.05;4.30;;;2.50;99.90;;;;;;5009458;28;20030;-73
2023/12/09 01:27:11;;;;;;;8.10;3.38;;;2.50;99.90;;;;;;5009651;28;20448;-73
2023/12/09 01:29:37;;;;;;;10.82;4.43;;;2.60;99.90;;;;;;5010632;28;20038;-73
2023/12/09 01:32:03;;;;;;;13.93;4.65;;;2.60;99.90;;;;;;5011243;28;20052;-73
2023/12/09 01:34:28;;;;;;;16.63;5.63;;;2.70;99.90;;;;;;5006201;28;20049;-73
2023/12/09 01:36:54;;;;;;;11.38;4.05;;;2.70;99.90;;;;;;5008137;28;21502;-73
2023/12/09 01:39:20;;;;;;;12.57;4.18;;;2.80;99.90;;;;;;5010774;28;20034;-73
2023/12/09 01:41:45;;;;;;;8.95;4.43;;;2.80;99.90;;;;;;5009513;28;20368;-73
2023/12/09 01:44:11;;;;;;;11.40;4.25;;;2.80;99.90;;;;;;5009954;28;20030;-73
2023/12/09 01:46:37;;;;;;;10.00;3.83;;;2.80;99.90;;;;;;5008093;28;20548;-73
2023/12/09 01:49:02;;;;;;;10.65;4.45;;;2.90;99.90;;;;;;5006502;28;20486;-73
2023/12/09 01:51:28;;;;;;;12.45;5.10;;;3.00;99.90;;;;;;5009881;28;20081;-72
2023/12/09 01:53:54;;;;;;;11.30;4.55;;;3.00;99.90;;;;;;5009382;28;20471;-73
2023/12/09 01:56:21;;;;;;;14.15;5.57;;;3.10;99.90;;;;;;5008288;28;20493;-73
2023/12/09 01:58:47;;;;;;;11.48;4.90;;;3.10;99.90;;;;;;5006556;28;20394;-73
2023/12/09 02:01:13;;;;;;;9.20;4.25;;;3.10;99.90;;;;;;5007440;28;20057;-73
2023/12/09 02:03:39;;;;;;;10.52;4.45;;;3.20;99.90;;;;;;5008042;28;20471;-73
2023/12/09 02:06:04;;;;;;;11.30;4.28;;;3.20;99.90;;;;;;5005382;28;20048;-73
2023/12/09 02:08:30;;;;;;;12.70;4.65;;;3.10;99.90;;;;;;5007340;28;20388;-73
2023/12/09 02:11:24;;;;;;;12.98;5.07;;;3.10;99.90;;;;;;5006332;28;20121;-73
2023/12/09 02:14:07;;;;;;;11.10;3.25;;;3.20;99.90;;;;;;5007625;28;20022;-73
2023/12/09 02:16:55;;;;;;;12.88;4.13;;;3.20;99.90;;;;;;5006704;28;20041;-73
2023/12/09 02:19:21;;;;;;;11.75;4.57;;;3.20;99.90;;;;;;5005788;28;20044;-73
2023/12/09 02:22:01;;;;;;;10.77;4.65;;;3.30;99.90;;;;;;5008046;28;20038;-73
2023/12/09 02:24:27;;;;;;;9.73;3.70;;;3.30;99.90;;;;;;5005999;28;20041;-73
2023/12/09 02:26:57;;;;;;;9.88;4.13;;;3.30;99.90;;;;;;5007272;28;20835;-73
2023/12/09 02:29:25;;;;;;;11.90;4.18;;;3.30;99.90;;;;;;5008385;28;20034;-73
2023/12/09 02:31:56;;;;;;;12.88;4.88;;;3.30;99.90;;;;;;5008439;28;20048;-74
2023/12/09 02:34:22;;;;;;;11.48;5.28;;;3.40;99.90;;;;;;5020937;28;20076;-74
2023/12/09 02:36:49;;;;;;;12.65;5.90;;;3.40;99.90;;;;;;5008052;28;20038;-73
2023/12/09 02:39:19;;;;;;;16.92;5.63;;;3.50;99.90;;;;;;5008780;28;20038;-73
2023/12/09 02:41:46;;;;;;;14.38;5.95;;;3.60;99.90;;;;;;5007421;28;20037;-73
2023/12/09 02:44:12;;;;;;;10.98;4.30;;;3.60;99.90;;;;;;5008278;28;20103;-73
2023/12/09 02:46:37;;;;;;;11.73;4.88;;;3.60;99.90;;;;;;5008023;28;20386;-73
2023/12/09 02:49:03;;;;;;;11.85;4.57;;;3.50;99.90;;;;;;5005934;28;20723;-74
2023/12/09 02:51:29;;;;;;;14.52;5.88;;;3.50;99.90;;;;;;5007486;28;20089;-74
2023/12/09 02:53:54;;;;;;;12.77;5.70;;;3.60;99.90;;;;;;5008950;28;20101;-73
2023/12/09 02:56:20;;;;;;;11.77;4.40;;;3.50;99.90;;;;;;5006436;28;20029;-74
2023/12/09 02:58:46;;;;;;;13.70;5.50;;;3.50;99.90;;;;;;5008317;28;20455;-73
2023/12/09 03:01:11;;;;;;;16.23;5.65;;;3.50;99.90;;;;;;5005034;28;20053;-74
2023/12/09 03:03:37;;;;;;;13.80;5.13;;;3.50;99.90;;;;;;5006726;28;20038;-74
2023/12/09 03:06:02;;;;;;;12.23;5.47;;;3.60;99.90;;;;;;5009383;28;20406;-74
2023/12/09 03:08:28;;;;;;;12.30;5.18;;;3.60;99.90;;;;;;5009023;28;20125;-74
2023/12/09 03:10:53;;;;;;;14.02;5.25;;;3.60;99.90;;;;;;5005254;28;20505;-74
2023/12/09 03:13:19;;;;;;;18.15;5.50;;;3.60;99.90;;;;;;5008104;28;20112;-73
2023/12/09 03:15:44;;;;;;;12.60;4.97;;;3.60;99.90;;;;;;5008175;28;20442;-74
2023/12/09 03:18:10;;;;;;;11.52;5.32;;;3.60;99.90;;;;;;5002753;28;20117;-74
2023/12/09 03:20:35;;;;;;;14.80;5.43;;;3.60;99.90;;;;;;5007749;28;20478;-73
2023/12/09 03:23:01;;;;;;;13.70;5.93;;;3.60;99.90;;;;;;5006385;28;20038;-74
2023/12/09 03:25:26;;;;;;;11.75;4.82;;;3.60;99.90;;;;;;5008959;28;20455;-74
2023/12/09 03:27:52;;;;;;;14.55;6.57;;;3.60;99.90;;;;;;5008838;28;20038;-73
2023/12/09 03:30:17;;;;;;;11.48;4.60;;;3.60;99.90;;;;;;5013041;28;20029;-74
2023/12/09 03:32:42;;;;;;;14.13;6.65;;;3.70;99.90;;;;;;5007610;28;20033;-74
2023/12/09 03:35:09;;;;;;;11.63;4.65;;;3.70;99.90;;;;;;5012352;28;20046;-74
2023/12/09 03:37:35;;;;;;;16.95;6.88;;;3.70;99.90;;;;;;5013591;28;20034;-73
2023/12/09 03:40:01;;;;;;;11.27;5.13;;;3.70;99.90;;;;;;5016715;28;20040;-74
2023/12/09 03:42:27;;;;;;;13.77;5.53;;;3.80;99.90;;;;;;5008661;28;20041;-73
2023/12/09 03:44:52;;;;;;;13.15;5.07;;;3.80;99.90;;;;;;5010716;28;20041;-74
2023/12/09 03:47:18;;;;;;;12.85;5.68;;;3.80;99.90;;;;;;5001866;28;20027;-74
2023/12/09 03:49:43;;;;;;;11.57;5.43;;;3.70;99.90;;;;;;5010220;28;20049;-74
2023/12/09 03:52:09;;;;;;;13.43;5.60;;;3.70;99.90;;;;;;5025351;28;20389;-74
2023/12/09 03:54:37;;;;;;;16.98;6.60;;;3.80;99.90;;;;;;5009486;28;22485;-74
2023/12/09 03:57:03;;;;;;;15.25;5.75;;;3.80;99.90;;;;;;5011810;28;20087;-73
2023/12/09 03:59:28;;;;;;;12.70;5.88;;;3.80;99.90;;;;;;5010516;28;20109;-74
2023/12/09 04:01:54;;;;;;;12.23;5.43;;;3.80;99.90;;;;;;5009147;28;20117;-74
2023/12/09 04:04:19;;;;;;;12.18;5.50;;;3.80;99.90;;;;;;5011377;28;20437;-74
2023/12/09 04:06:45;;;;;;;12.77;6.55;;;3.80;99.90;;;;;;5010049;28;20041;-74
2023/12/09 04:09:10;;;;;;;11.75;5.50;;;3.90;99.90;;;;;;5011840;28;20087;-74
2023/12/09 04:11:36;;;;;;;12.77;6.00;;;3.90;99.90;;;;;;5012258;28;20164;-74
2023/12/09 04:14:02;;;;;;;14.93;6.18;;;4.00;99.90;;;;;;5008917;28;20375;-74
2023/12/09 04:16:28;;;;;;;12.05;6.03;;;4.00;99.90;;;;;;5010548;28;20034;-74
2023/12/09 04:18:53;;;;;;;12.05;5.68;;;4.10;99.90;;;;;;5008192;28;20044;-73
2023/12/09 04:21:18;;;;;;;12.57;5.63;;;4.00;99.90;;;;;;5011962;28;20510;-74
2023/12/09 04:23:44;;;;;;;13.55;5.55;;;4.10;99.90;;;;;;5007890;28;20037;-73
2023/12/09 04:26:09;;;;;;;12.75;5.85;;;4.10;99.90;;;;;;5006388;28;20037;-74
2023/12/09 04:28:35;;;;;;;12.55;6.15;;;4.10;99.90;;;;;;5010119;28;20034;-74
2023/12/09 04:31:00;;;;;;;13.32;6.63;;;4.10;99.90;;;;;;5004570;28;20077;-74
2023/12/09 04:33:27;;;;;;;14.82;6.05;;;4.20;99.90;;;;;;5007335;28;20033;-74
2023/12/09 04:35:52;;;;;;;12.15;5.30;;;4.10;99.90;;;;;;5011772;28;20509;-74
2023/12/09 04:38:17;;;;;;;11.20;5.70;;;4.10;99.90;;;;;;5009658;28;20398;-74
2023/12/09 04:40:43;;;;;;;9.43;4.50;;;4.10;99.90;;;;;;5010806;28;20034;-74
2023/12/09 04:43:08;;;;;;;11.52;5.53;;;4.10;99.90;;;;;;5010569;28;20066;-74
2023/12/09 04:45:34;;;;;;;12.07;5.00;;;4.20;99.90;;;;;;5006620;28;20034;-74
2023/12/09 04:47:59;;;;;;;11.82;5.30;;;4.20;99.90;;;;;;5006145;28;20034;-74
2023/12/09 04:50:25;;;;;;;11.50;5.80;;;4.30;99.90;;;;;;5009789;28;21810;-74
2023/12/09 04:52:51;;;;;;;11.48;4.85;;;4.20;99.90;;;;;;5010904;28;20053;-74
2023/12/09 04:55:16;;;;;;;11.70;5.65;;;4.20;99.90;;;;;;5011911;28;20034;-74
2023/12/09 04:57:42;;;;;;;11.57;5.10;;;4.20;99.90;;;;;;5008888;28;20033;-74
2023/12/09 05:00:10;;;;;;;9.50;5.25;;;4.30;99.90;;;;;;5008321;28;20034;-74
2023/12/09 05:02:36;;;;;;;9.93;5.40;;;4.20;99.90;;;;;;5005955;28;20336;-74
2023/12/09 05:05:01;;;;;;;11.07;5.72;;;4.30;99.90;;;;;;5009957;28;20029;-74
2023/12/09 05:07:28;;;;;;;12.07;5.50;;;4.30;99.90;;;;;;5010508;28;20038;-74
2023/12/09 05:09:53;;;;;;;11.52;4.97;;;4.40;99.90;;;;;;5008732;28;20430;-74
2023/12/09 05:12:19;;;;;;;9.98;4.78;;;4.30;99.90;;;;;;5010372;28;20026;-74
2023/12/09 05:14:44;;;;;;;9.93;4.95;;;4.40;99.90;;;;;;5007867;28;20026;-74
2023/12/09 05:17:11;;;;;;;11.05;5.65;;;4.30;99.90;;;;;;5008290;28;20559;-74
2023/12/09 05:19:36;;;;;;;10.20;4.47;;;4.40;99.90;;;;;;5008401;28;20026;-74
2023/12/09 05:22:02;;;;;;;9.35;4.75;;;4.40;99.90;;;;;;5010325;28;20056;-74
2023/12/09 05:24:27;;;;;;;8.95;4.32;;;4.40;99.90;;;;;;5009669;28;20438;-74
2023/12/09 05:26:53;;;;;;;10.52;5.57;;;4.40;99.90;;;;;;5005799;28;20045;-71
2023/12/09 05:29:18;;;;;;;10.88;5.30;;;4.40;99.90;;;;;;5007972;28;20459;-71
2023/12/09 05:31:44;;;;;;;14.65;5.35;;;4.30;99.90;;;;;;5005793;28;20037;-71
2023/12/09 05:34:09;;;;;;;9.02;4.40;;;4.40;99.90;;;;;;5003377;28;20064;-71
2023/12/09 05:36:37;;;;;;;10.90;5.38;;;4.40;99.90;;;;;;5011506;28;20041;-71
2023/12/09 05:39:03;;;;;;;9.52;4.70;;;4.30;99.90;;;;;;5010498;28;20057;-71
2023/12/09 05:41:28;;;;;;;8.43;4.32;;;4.40;99.90;;;;;;5009388;28;20475;-71
2023/12/09 05:43:53;;;;;;;8.75;4.55;;;4.30;99.90;;;;;;5010568;28;20033;-71
2023/12/09 05:46:19;;;;;;;9.63;4.22;;;4.30;99.90;;;;;;5004938;28;20042;-71
2023/12/09 05:48:46;;;;;;;7.55;4.15;;;4.30;99.90;;;;;;5002959;28;20459;-71
2023/12/09 05:51:12;;;;;;;7.55;4.38;;;4.30;99.90;;;;;;5004853;28;20061;-71
2023/12/09 05:53:37;;;;;;;8.25;4.03;;;4.30;99.90;;;;;;5011865;28;20034;-71
2023/12/09 05:56:03;;;;;;;8.27;3.63;;;4.30;99.90;;;;;;5009601;28;20030;-71
2023/12/09 05:58:28;;;;;;;7.80;3.85;;;4.30;99.90;;;;;;5010304;28;20030;-71
2023/12/09 06:00:54;;;;;;;9.25;5.15;;;4.30;99.90;;;;;;5005854;28;20045;-71
2023/12/09 06:03:20;;;;;;;8.88;4.88;;;4.30;99.90;;;;;;5004314;28;20104;-71
2023/12/09 06:05:45;;;;;;;8.55;4.57;;;4.30;99.90;;;;;;5006640;28;20037;-71
2023/12/09 06:08:11;;;;;;;8.57;4.72;;;4.30;99.90;;;;;;5008161;28;20022;-71
2023/12/09 06:10:36;;;;;;;7.65;3.70;;;4.30;99.90;;;;;;5009156;28;20487;-71
2023/12/09 06:13:02;;;;;;;9.38;4.32;;;4.30;99.90;;;;;;5009707;28;20044;-71
2023/12/09 06:15:27;;;;;;;9.40;4.50;;;4.30;99.90;;;;;;5009217;28;20463;-71
2023/12/09 06:17:52;;;;;;;9.45;5.07;;;4.40;99.90;;;;;;5004391;28;20045;-71
2023/12/09 06:20:18;;;;;;;8.57;3.95;;;4.30;99.90;;;;;;5010471;28;20026;-71
2023/12/09 06:22:43;;;;;;;7.53;3.53;;;4.30;99.90;;;;;;5007995;28;20050;-71
2023/12/09 06:25:09;;;;;;;8.38;4.47;;;4.30;99.90;;;;;;5010995;28;20038;-71
2023/12/09 06:27:35;;;;;;;8.68;4.70;;;4.30;99.90;;;;;;5011113;28;20034;-71
2023/12/09 06:30:01;;;;;;;7.70;3.78;;;4.30;99.90;;;;;;5010240;28;20056;-70
2023/12/09 06:32:26;;;;;;;8.00;3.40;;;4.30;99.90;;;;;;5002211;28;20478;-70
2023/12/09 06:34:52;;;;;;;9.15;4.32;;;4.30;99.90;;;;;;5005846;28;20038;-70
2023/12/09 06:37:17;;;;;;;7.95;3.55;;;4.30;99.90;;;;;;5012559;28;20033;-70
2023/12/09 06:39:43;;;;;;;10.25;4.45;;;4.30;99.90;;;;;;5012912;28;20038;-71
2023/12/09 06:42:08;;;;;;;9.85;3.92;;;4.30;99.90;;;;;;5009293;28;20495;-72
2023/12/09 06:44:33;;;;;;;7.32;4.22;;;4.30;99.90;;;;;;5010273;28;20093;-72
2023/12/09 06:46:59;;;;;;;9.63;4.47;;;4.30;99.90;;;;;;5000709;28;20038;-72
2023/12/09 06:49:24;;;;;;;5.95;3.00;;;4.30;99.90;;;;;;5002377;28;20030;-71
2023/12/09 06:51:50;;;;;;;9.90;3.47;;;4.30;99.90;;;;;;5008826;28;20061;-71
2023/12/09 06:54:16;;;;;;;8.23;4.13;;;4.40;99.90;;;;;;5011717;28;20032;-71
2023/12/09 06:56:42;;;;;;;6.75;3.63;;;4.30;99.90;;;;;;5010260;28;20030;-71
2023/12/09 06:59:07;;;;;;;9.45;4.07;;;4.30;99.90;;;;;;5004428;28;20409;-72
2023/12/09 07:01:33;;;;;;;6.47;3.58;;;4.30;99.90;;;;;;5007491;28;20037;-72
2023/12/09 07:03:58;;;;;;;6.65;3.33;;;4.30;99.90;;;;;;5007288;28;20030;-72
2023/12/09 07:06:26;;;;;;;7.05;3.80;;;4.30;99.90;;;;;;5006998;28;20068;-72
2023/12/09 07:08:52;;;;;;;9.32;3.95;;;4.30;99.90;;;;;;5010058;28;20033;-72
2023/12/09 07:11:22;;;;;;;8.82;2.97;;;4.30;99.90;;;;;;5012182;28;20459;-73
2023/12/09 07:13:47;;;;;;;6.32;3.22;;;4.30;99.90;;;;;;5020747;28;20026;-73
2023/12/09 07:16:13;;;;;;;6.55;2.90;;;4.30;99.90;;;;;;5011016;28;20084;-73
2023/12/09 07:18:46;;;;;;;7.80;3.78;;;4.40;99.90;;;;;;5011029;28;20033;-73
2023/12/09 07:21:15;;;;;;;7.75;3.45;;;4.30;99.90;;;;;;5010809;28;20104;-73
2023/12/09 07:23:42;;;;;;;7.90;2.75;;;4.40;99.90;;;;;;5003205;28;20116;-73
2023/12/09 07:26:07;;;;;;;6.65;3.58;;;4.40;99.90;;;;;;5011780;28;20525;-73
2023/12/09 07:28:33;;;;;;;9.90;3.63;;;4.40;99.90;;;;;;5011807;28;20041;-73
2023/12/09 07:30:59;;;;;;;6.93;3.47;;;4.40;99.90;;;;;;5011231;28;20026;-73
2023/12/09 07:33:25;;;;;;;6.82;3.28;;;4.40;99.90;;;;;;5009538;28;20101;-73
2023/12/09 07:35:50;;;;;;;7.30;3.42;;;4.40;99.90;;;;;;5011180;28;20132;-74
2023/12/09 07:38:17;;;;;;;9.02;3.47;;;4.40;99.90;;;;;;5015018;28;20042;-73
2023/12/09 07:40:43;;;;;;;8.95;3.63;;;4.50;99.90;;;;;;5011666;28;20051;-74
2023/12/09 07:43:08;;;;;;;7.88;3.45;;;4.40;99.90;;;;;;5011345;28;20034;-72
2023/12/09 07:45:34;;;;;;;7.95;3.28;;;4.40;99.90;;;;;;5015393;28;20037;-72
2023/12/09 07:48:00;;;;;;;6.55;3.50;;;4.50;99.90;;;;;;5018821;28;20433;-72
2023/12/09 07:50:26;;;;;;;5.57;2.67;;;4.40;99.90;;;;;;5011282;28;20494;-72
2023/12/09 07:52:51;;;;;;;6.03;3.28;;;4.40;99.90;;;;;;5008746;28;20072;-72
2023/12/09 07:55:17;;;;;;;7.65;3.22;;;4.40;99.90;;;;;;5011186;28;20030;-72
2023/12/09 07:57:42;;;;;;;6.13;3.30;;;4.40;99.90;;;;;;5012373;28;20053;-72
2023/12/09 08:00:09;;;;;;;6.60;3.22;;;4.40;99.90;;;;;;5006512;28;20446;-73
2023/12/09 08:02:35;;;;;;;8.68;4.05;;;4.50;99.90;;;;;;5003890;28;20049;-72
2023/12/09 08:05:00;;;;;;;6.25;3.33;;;4.50;99.90;;;;;;5005474;28;20367;-73
2023/12/09 08:07:26;;;;;;;6.55;3.35;;;4.50;99.90;;;;;;5009151;28;20026;-73
2023/12/09 08:09:51;;;;;;;6.28;3.15;;;4.50;99.90;;;;;;5001281;28;20053;-73
2023/12/09 08:12:17;;;;;;;6.43;3.30;;;4.50;99.90;;;;;;5009618;28;20034;-73
2023/12/09 08:14:42;;;;;;;7.43;3.65;;;4.50;99.90;;;;;;5007067;28;20068;-73
2023/12/09 08:17:08;;;;;;;7.25;4.13;;;4.60;99.90;;;;;;5004955;28;20042;-73
2023/12/09 08:19:33;;;;;;;6.97;2.85;;;4.60;99.90;;;;;;5003730;28;20041;-73
2023/12/09 08:21:59;;;;;;;8.95;3.72;;;4.60;99.90;;;;;;5009017;28;20521;-73
2023/12/09 08:24:25;;;;;;;6.53;3.20;;;4.60;99.90;;;;;;5009607;28;20104;-73
2023/12/09 08:26:50;;;;;;;6.47;2.85;;;4.60;99.90;;;;;;5009738;28;20041;-72
2023/12/09 08:29:16;;;;;;;6.82;3.08;;;4.60;99.90;;;;;;5011625;28;20045;-73
2023/12/09 08:31:41;;;;;;;6.82;3.38;;;4.60;99.90;;;;;;5009773;28;20033;-72
2023/12/09 08:34:07;;;;;;;9.63;3.88;;;4.60;99.90;;;;;;5003728;28;20057;-72
2023/12/09 08:36:32;;;;;;;7.35;3.45;;;4.60;99.90;;;;;;5011195;28;20041;-72
2023/12/09 08:38:58;;;;;;;5.18;2.85;;;4.60;99.90;;;;;;5010267;28;20516;-73
2023/12/09 08:41:24;;;;;;;5.70;2.55;;;4.60;99.90;;;;;;5006072;28;20426;-73
2023/12/09 08:43:52;;;;;;;5.57;3.38;;;4.60;99.90;;;;;;5009560;28;20411;-74
2023/12/09 08:46:18;;;;;;;5.65;2.55;;;4.60;99.90;;;;;;5009462;28;20342;-74
2023/12/09 08:48:44;;;;;;;7.15;3.50;;;4.60;99.90;;;;;;5007596;28;20370;-74
2023/12/09 08:51:09;;;;;;;6.28;2.88;;;4.70;99.90;;;;;;5011115;28;20046;-74
2023/12/09 08:53:34;;;;;;;6.75;2.75;;;4.70;99.90;;;;;;5011007;28;20026;-74
2023/12/09 08:56:00;;;;;;;4.70;2.47;;;4.70;99.90;;;;;;5010167;28;20553;-74
2023/12/09 08:58:25;;;;;;;6.88;2.63;;;4.80;99.90;;;;;;5010093;28;20033;-74
2023/12/09 09:00:51;;;;;;;7.45;2.90;;;4.80;99.90;;;;;;5009240;28;20113;-74
2023/12/09 09:03:16;;;;;;;5.60;2.75;;;4.90;99.90;;;;;;5008396;28;20042;-74
2023/12/09 09:05:42;;;;;;;6.43;2.88;;;4.90;99.90;;;;;;5019761;28;20076;-74
2023/12/09 09:08:08;;;;;;;5.40;2.83;;;4.90;99.90;;;;;;5011597;28;20475;-74
2023/12/09 09:10:33;;;;;;;6.55;3.10;;;4.90;99.90;;;;;;5007265;28;20044;-74
2023/12/09 09:12:59;;;;;;;7.93;3.00;;;4.90;99.90;;;;;;5007612;28;20030;-74
2023/12/09 09:15:24;;;;;;;6.03;2.80;;;5.00;99.90;;;;;;5005879;28;20057;-74
2023/12/09 09:17:50;;;;;;;5.57;2.50;;;4.90;99.90;;;;;;5008895;28;20038;-74
2023/12/09 09:20:15;;;;;;;6.30;2.97;;;4.90;99.90;;;;;;5009548;28;20026;-73
2023/12/09 09:22:41;;;;;;;5.60;2.67;;;4.90;99.90;;;;;;5007716;28;20038;-74
2023/12/09 09:25:07;;;;;;;5.85;3.05;;;5.00;99.90;;;;;;5008456;28;20470;-72
2023/12/09 09:27:33;;;;;;;5.80;2.85;;;5.00;99.90;;;;;;5011088;28;20034;-73
2023/12/09 09:29:58;;;;;;;7.10;3.15;;;5.00;99.90;;;;;;5008820;28;20029;-73
2023/12/09 09:32:24;;;;;;;5.15;2.53;;;5.00;99.90;;;;;;5004417;28;20037;-74
2023/12/09 09:34:49;;;;;;;5.82;2.85;;;5.00;99.90;;;;;;5008353;28;20478;-74
2023/12/09 09:37:15;;;;;;;4.78;2.70;;;5.00;99.90;;;;;;5007902;28;20092;-75
2023/12/09 09:39:40;;;;;;;8.48;2.78;;;5.00;99.90;;;;;;5005076;28;20530;-74
2023/12/09 09:42:32;;;;;;;6.47;2.63;;;5.10;99.90;;;;;;5008619;28;20158;-73
2023/12/09 09:45:22;;;;;;;6.65;3.20;;;5.10;99.90;;;;;;5011106;28;20032;-72
2023/12/09 09:47:49;;;;;;;5.57;2.80;;;5.10;99.90;;;;;;5003959;28;20030;-73
2023/12/09 09:50:26;;;;;;;9.48;3.88;;;5.10;99.90;;;;;;5009583;28;20073;-72
2023/12/09 09:52:53;;;;;;;4.13;2.35;;;5.20;99.90;;;;;;5011414;28;20025;-72
2023/12/09 09:55:25;;;;;;;6.22;2.58;;;5.20;99.90;;;;;;5008355;28;20112;-72
2023/12/09 09:57:51;;;;;;;5.28;2.75;;;5.20;99.90;;;;;;5007696;28;20034;-72
2023/12/09 10:00:19;;;;;;;4.32;2.15;;;5.20;99.90;;;;;;5008825;28;20041;-72
2023/12/09 10:02:50;;;;;;;6.50;3.20;;;5.30;99.90;;;;;;5006696;28;20406;-73
2023/12/09 10:05:17;;;;;;;6.32;2.83;;;5.30;99.90;;;;;;5007867;28;20467;-73
2023/12/09 10:07:44;;;;;;;6.00;2.67;;;5.40;99.90;;;;;;5008289;28;20141;-73
2023/12/09 10:10:11;;;;;;;5.82;2.72;;;5.50;99.90;;;;;;5011775;28;20466;-74
2023/12/09 10:12:37;;;;;;;4.45;2.35;;;5.50;99.90;;;;;;5005637;28;20108;-74
2023/12/09 10:15:04;;;;;;;5.85;2.40;;;5.40;99.90;;;;;;5008717;28;20064;-72
2023/12/09 10:17:31;;;;;;;5.30;2.47;;;5.30;99.90;;;;;;5002664;28;20060;-74
2023/12/09 10:19:57;;;;;;;7.18;2.60;;;5.30;99.90;;;;;;5007120;28;20117;-74
2023/12/09 10:22:24;;;;;;;5.22;2.30;;;5.30;99.90;;;;;;5004161;28;20033;-75
2023/12/09 10:24:51;;;;;;;4.03;2.25;;;5.40;99.90;;;;;;5003532;28;20037;-74
2023/12/09 10:27:18;;;;;;;5.30;2.63;;;5.40;99.90;;;;;;5009294;28;20113;-74
2023/12/09 10:29:44;;;;;;;6.60;2.95;;;5.50;99.90;;;;;;5008882;28;20049;-74
2023/12/09 10:32:11;;;;;;;3.88;2.33;;;5.60;99.90;;;;;;5006571;28;20537;-74
2023/12/09 10:34:36;;;;;;;4.38;2.47;;;5.60;99.90;;;;;;5004810;28;20438;-73
2023/12/09 10:37:02;;;;;;;6.53;2.60;;;5.60;99.90;;;;;;5013528;28;20034;-74
2023/12/09 10:39:29;;;;;;;6.25;2.38;;;5.60;99.90;;;;;;5010799;28;20030;-73
2023/12/09 10:41:57;;;;;;;7.60;2.45;;;5.50;99.90;;;;;;5009906;28;20045;-75
2023/12/09 10:44:23;;;;;;;3.88;2.67;;;5.30;99.90;;;;;;5013565;28;20033;-74
2023/12/09 10:46:48;;;;;;;3.80;2.50;;;5.20;99.90;;;;;;5007772;28;20088;-74
2023/12/09 10:49:14;;;;;;;4.50;2.30;;;5.20;99.90;;;;;;5010460;28;20180;-74
2023/12/09 10:51:39;;;;;;;7.03;2.40;;;5.10;99.90;;;;;;5008247;28;20517;-74
2023/12/09 10:54:05;;;;;;;6.43;2.63;;;5.20;99.90;;;;;;5012295;28;20125;-73
2023/12/09 10:56:30;;;;;;;7.00;2.50;;;5.20;99.90;;;;;;5009482;28;20395;-71
2023/12/09 10:58:56;;;;;;;4.22;1.95;;;5.30;99.90;;;;;;5010516;28;20495;-74
2023/12/09 11:01:22;;;;;;;4.85;2.30;;;5.30;99.90;;;;;;5009053;28;20040;-73
2023/12/09 11:03:48;;;;;;;6.88;2.95;;;5.40;99.90;;;;;;5007832;28;20359;-71
2023/12/09 11:06:15;;;;;;;7.88;3.22;;;5.40;99.90;;;;;;5006893;28;20065;-73
2023/12/09 11:08:41;;;;;;;5.40;2.83;;;5.40;99.90;;;;;;5004547;28;20076;-73
2023/12/09 11:11:07;;;;;;;4.40;2.42;;;5.40;99.80;;;;;;5008716;28;20053;-73
2023/12/09 11:13:34;;;;;;;4.60;2.25;;;5.60;99.90;;;;;;5005833;28;20076;-73
2023/12/09 11:16:18;;;;;;;4.57;2.47;;;5.50;99.60;;;;;;5007199;28;20356;-74
2023/12/09 11:19:02;;;;;;;5.45;2.70;;;5.70;99.80;;;;;;5006507;28;20474;-73
2023/12/09 11:21:29;;;;;;;4.38;2.58;;;5.70;99.60;;;;;;5006021;28;20038;-73
2023/12/09 11:23:58;;;;;;;8.77;2.80;;;5.60;98.90;;;;;;5010931;28;20026;-74
2023/12/09 11:26:31;;;;;;;7.20;2.65;;;5.60;99.10;;;;;;5011540;28;20030;-72
2023/12/09 11:29:08;;;;;;;8.43;3.28;;;5.60;98.90;;;;;;5005500;28;20033;-74
2023/12/09 11:31:36;;;;;;;8.43;3.05;;;5.60;98.80;;;;;;5002960;28;20474;-74
2023/12/09 11:34:07;;;;;;;5.85;3.13;;;5.60;98.60;;;;;;5006340;28;20116;-76
2023/12/09 11:36:35;;;;;;;6.70;2.90;;;5.60;98.90;;;;;;5005748;28;20456;-73
2023/12/09 11:39:04;;;;;;;6.20;2.85;;;5.60;98.70;;;;;;5003447;28;20192;-72
2023/12/09 11:41:30;;;;;;;5.35;2.95;;;5.40;98.50;;;;;;5006370;28;20094;-73
2023/12/09 11:43:57;;;;;;;4.32;2.53;;;5.60;99.00;;;;;;5007639;28;20037;-71
2023/12/09 11:46:22;;;;;;;5.15;2.72;;;5.50;98.20;;;;;;5003117;28;20066;-74
2023/12/09 11:48:50;;;;;;;4.95;2.90;;;5.60;98.50;;;;;;5004795;28;20053;-75
2023/12/09 11:51:17;;;;;;;4.97;2.47;;;5.50;98.40;;;;;;5008433;28;20049;-73
2023/12/09 11:53:56;;;;;;;6.35;2.67;;;5.50;98.50;;;;;;5011048;28;20042;-77
2023/12/09 11:56:22;;;;;;;5.40;3.05;;;5.50;98.70;;;;;;5008559;28;20512;-80
2023/12/09 11:58:48;;;;;;;4.88;2.85;;;5.30;98.50;;;;;;5013428;28;20065;-81
2023/12/09 12:01:14;;;;;;;5.72;3.00;;;5.20;98.40;;;;;;5008076;28;20513;-71
2023/12/09 12:03:39;;;;;;;6.38;3.40;;;5.20;98.30;;;;;;5002954;28;20030;-74
2023/12/09 12:06:06;;;;;;;6.28;2.63;;;5.20;98.70;;;;;;5023125;28;20053;-75
2023/12/09 12:08:31;;;;;;;5.90;3.00;;;5.10;98.70;;;;;;5004067;28;20029;-72
2023/12/09 12:10:57;;;;;;;4.97;2.72;;;5.10;98.80;;;;;;5008306;28;20462;-73
2023/12/09 12:13:22;;;;;;;6.50;3.45;;;5.00;98.60;;;;;;5004887;28;20046;-74
2023/12/09 12:15:49;;;;;;;6.32;2.90;;;5.00;98.80;;;;;;5009958;28;20037;-73
2023/12/09 12:18:15;;;;;;;6.28;2.75;;;4.90;98.90;;;;;;5005145;28;20041;-73
2023/12/09 12:20:40;;;;;;;5.32;2.85;;;4.90;99.10;;;;;;5008208;28;20034;-73
2023/12/09 12:23:06;;;;;;;4.63;2.40;;;5.00;99.20;;;;;;5010014;28;20135;-73
2023/12/09 12:25:31;;;;;;;3.75;2.20;;;5.00;99.10;;;;;;5005909;28;20037;-74
2023/12/09 12:27:57;;;;;;;4.38;2.75;;;5.00;99.20;;;;;;5004850;28;20037;-72
2023/12/09 12:30:23;;;;;;;4.75;2.70;;;5.10;99.00;;;;;;5010394;28;20036;-74
2023/12/09 12:32:56;;;;;;;5.43;2.60;;;5.10;99.00;;;;;;5008601;28;20021;-73
2023/12/09 12:35:22;;;;;;;3.70;2.22;;;5.00;98.90;;;;;;5011183;28;20037;-72
2023/12/09 12:37:48;;;;;;;4.93;2.50;;;5.10;99.10;;;;;;5011209;28;20040;-73
2023/12/09 12:40:14;;;;;;;4.82;2.90;;;5.00;98.70;;;;;;5011479;28;20450;-73
2023/12/09 12:42:40;;;;;;;6.95;3.00;;;5.10;98.80;;;;;;5012802;28;20050;-72
2023/12/09 12:45:19;;;;;;;4.35;2.53;;;5.10;98.70;;;;;;5010082;28;20060;-73
2023/12/09 12:47:45;;;;;;;4.53;2.67;;;5.20;98.80;;;;;;5007951;28;20037;-72
2023/12/09 12:50:11;;;;;;;3.83;2.30;;;5.10;98.60;;;;;;5003603;28;20058;-73